Time;durP1;ratioP1;P1;durP2;ratioP2;P2;SDS_P1;SDS_P2;PMS_P1;PMS_P2;Temp;Humidity;BMP_temperature;BMP_pressure;BME280_temperature;BME280_humidity;BME280_pressure;Samples;Min_cycle;Max_cycle;Signal;HPM_P1;HPM_P2
2021/05/06 00:04:27;;;;;;;5.00;2.13;;;3.80;99.90;;;4.08;100.00;94727.00;2294248;60;26735;-62
2021/05/06 00:10:53;;;;;;;4.43;2.13;;;4.00;99.90;;;4.06;100.00;94724.00;2188534;58;25658;-62
2021/05/06 00:32:21;;;;;;;2.67;0.90;;;5.70;99.90;;;5.97;100.00;94673.00;2187984;58;26168;-62
2021/05/06 00:35:09;;;;;;;3.03;1.40;;;5.70;99.90;;;6.03;100.00;94675.00;2400742;57;26120;-62
2021/05/06 00:38:00;;;;;;;2.03;1.07;;;5.70;99.90;;;6.02;100.00;94676.00;2187997;58;26173;-62
2021/05/06 00:40:57;;;;;;;2.33;1.27;;;5.70;99.90;;;6.04;100.00;94669.00;2400838;57;26311;-62
2021/05/06 00:44:17;;;;;;;5.27;1.30;;;5.80;99.90;;;6.05;100.00;94674.00;2400997;57;26653;-62
2021/05/06 01:00:07;;;;;;;1.63;1.10;;;5.80;99.90;;;6.07;100.00;94666.00;2187451;58;26638;-62
2021/05/06 01:03:03;;;;;;;3.00;1.37;;;5.80;99.90;;;6.05;100.00;94662.00;2188213;58;26160;-62
2021/05/06 01:05:53;;;;;;;3.60;1.60;;;5.70;99.90;;;6.02;100.00;94673.00;2187658;58;26160;-61
2021/05/06 01:08:42;;;;;;;4.03;1.43;;;5.70;99.90;;;6.04;100.00;94675.00;2400850;58;26598;-62
2021/05/06 01:11:33;;;;;;;3.13;1.27;;;5.70;99.90;;;5.99;100.00;94676.00;2187937;58;26276;-62
2021/05/06 01:14:20;;;;;;;3.53;1.43;;;5.70;99.90;;;6.04;100.00;94680.00;2401042;57;26204;-62
2021/05/06 01:17:06;;;;;;;4.17;1.50;;;5.80;99.90;;;6.02;100.00;94679.00;2188159;58;26534;-61
2021/05/06 01:19:53;;;;;;;3.40;1.50;;;5.80;99.90;;;6.11;100.00;94678.00;2187773;58;26688;-61
2021/05/06 01:22:39;;;;;;;3.00;1.27;;;5.70;99.90;;;6.01;100.00;94664.00;2400605;58;26634;-62
2021/05/06 01:25:26;;;;;;;4.07;1.53;;;5.80;99.90;;;6.08;100.00;94665.00;2188054;58;26144;-62
2021/05/06 01:28:15;;;;;;;2.33;1.37;;;5.80;99.90;;;6.04;100.00;94654.00;2400907;57;26160;-62
2021/05/06 01:31:06;;;;;;;1.73;1.20;;;5.80;99.90;;;6.08;100.00;94658.00;2187990;58;26183;-62
2021/05/06 01:33:59;;;;;;;2.13;1.33;;;5.80;99.90;;;6.06;100.00;94669.00;2400779;57;27156;-62
2021/05/06 01:36:49;;;;;;;3.53;1.37;;;5.70;99.90;;;5.96;100.00;94661.00;2400508;58;26140;-62
2021/05/06 01:40:07;;;;;;;3.33;1.30;;;5.80;99.90;;;6.07;100.00;94658.00;2188181;58;26164;-62
2021/05/06 01:42:57;;;;;;;4.70;1.63;;;5.70;99.90;;;6.01;100.00;94651.00;2187951;58;26176;-62
2021/05/06 01:49:18;;;;;;;2.87;1.00;;;5.60;99.90;;;5.93;100.00;94645.00;2399497;58;26194;-62
2021/05/06 02:01:36;;;;;;;3.23;1.20;;;5.70;99.90;;;5.83;100.00;94634.00;2149686;58;26217;-62
2021/05/06 02:04:22;;;;;;;3.30;1.40;;;5.60;99.90;;;5.78;100.00;94634.00;2400756;57;26213;-62
2021/05/06 02:07:09;;;;;;;2.23;1.40;;;5.60;99.90;;;5.76;100.00;94644.00;2187911;58;26538;-62
2021/05/06 02:09:55;;;;;;;2.80;1.40;;;5.60;99.90;;;5.75;100.00;94632.00;2401027;57;26188;-62
2021/05/06 02:12:42;;;;;;;5.77;1.67;;;5.50;99.90;;;5.64;100.00;94625.00;2187619;58;26582;-62
2021/05/06 02:15:30;;;;;;;5.40;1.37;;;5.50;99.90;;;5.62;100.00;94621.00;2187824;58;26177;-62
2021/05/06 02:18:17;;;;;;;4.17;1.20;;;5.50;99.90;;;5.62;100.00;94627.00;2401293;57;26651;-62
2021/05/06 02:21:03;;;;;;;1.53;1.20;;;5.60;99.90;;;5.87;100.00;94623.00;2187447;58;26140;-62
2021/05/06 02:23:50;;;;;;;2.93;1.40;;;5.60;99.90;;;5.72;100.00;94612.00;2400920;57;26229;-62
2021/05/06 02:26:36;;;;;;;6.10;1.50;;;5.50;99.90;;;5.83;100.00;94619.00;2187611;58;26590;-62
2021/05/06 02:29:23;;;;;;;4.23;1.60;;;5.60;99.90;;;5.80;100.00;94619.00;2400910;58;26125;-62
2021/05/06 02:32:09;;;;;;;2.90;1.50;;;5.70;99.90;;;5.92;100.00;94607.00;2187794;58;26213;-62
2021/05/06 02:34:56;;;;;;;4.40;1.57;;;5.70;99.90;;;6.00;100.00;94600.00;2400645;57;26125;-62
2021/05/06 02:37:43;;;;;;;2.47;1.40;;;5.70;99.90;;;5.95;100.00;94608.00;2187787;58;26140;-62
2021/05/06 02:40:30;;;;;;;3.67;1.60;;;5.80;99.90;;;6.14;100.00;94605.00;2399267;57;26228;-62
2021/05/06 02:43:16;;;;;;;2.83;1.30;;;5.90;99.90;;;6.22;100.00;94608.00;2187074;58;26284;-61
2021/05/06 02:46:02;;;;;;;2.80;1.40;;;5.90;99.90;;;6.18;100.00;94608.00;2187777;58;26305;-61
2021/05/06 02:48:49;;;;;;;3.83;1.60;;;5.90;99.90;;;6.20;100.00;94607.00;2400106;57;26633;-62
2021/05/06 02:51:38;;;;;;;4.30;1.30;;;5.90;99.90;;;6.26;100.00;94599.00;2186529;58;26728;-62
2021/05/06 02:54:25;;;;;;;4.80;1.73;;;6.00;99.90;;;6.22;100.00;94599.00;2187906;58;26128;-62
2021/05/06 02:57:19;;;;;;;4.37;1.40;;;6.00;99.90;;;6.25;100.00;94600.00;2187598;58;26194;-62
2021/05/06 03:03:15;;;;;;;5.97;1.20;;;6.00;99.90;;;6.23;100.00;94602.00;2188253;58;26181;-62
2021/05/06 03:06:02;;;;;;;4.97;1.60;;;5.90;99.90;;;6.16;100.00;94600.00;2187343;58;26144;-62
2021/05/06 03:08:52;;;;;;;2.80;1.30;;;5.90;99.90;;;6.19;100.00;94589.00;2400950;57;26121;-61
2021/05/06 03:11:43;;;;;;;2.60;1.30;;;5.90;99.90;;;6.18;100.00;94595.00;2187681;58;26152;-62
2021/05/06 03:14:45;;;;;;;3.93;1.47;;;6.00;99.90;;;6.27;100.00;94597.00;2187305;58;26657;-62
2021/05/06 03:23:42;;;;;;;1.67;1.03;;;6.00;99.90;;;6.27;100.00;94591.00;2401030;58;26146;-62
2021/05/06 03:26:31;;;;;;;4.57;1.40;;;6.10;99.90;;;6.41;100.00;94593.00;2188007;58;26666;-62
2021/05/06 03:29:21;;;;;;;3.83;1.30;;;6.10;99.90;;;6.32;100.00;94589.00;2400964;58;26304;-62
2021/05/06 03:32:21;;;;;;;4.13;1.40;;;6.10;99.90;;;6.36;100.00;94590.00;2188094;58;26196;-62
2021/05/06 03:35:17;;;;;;;4.90;1.40;;;6.00;99.90;;;6.35;100.00;94591.00;2188000;58;26208;-62
2021/05/06 03:41:41;;;;;;;2.87;1.43;;;6.10;99.90;;;6.37;100.00;94587.00;2293603;60;26170;-62
2021/05/06 03:44:34;;;;;;;2.50;1.40;;;6.10;99.90;;;6.40;100.00;94589.00;2098414;60;26360;-62
2021/05/06 03:47:40;;;;;;;3.17;1.50;;;6.10;99.90;;;6.44;100.00;94583.00;2186882;58;26192;-63
2021/05/06 04:18:17;;;;;;;2.60;1.53;;;6.20;99.90;;;6.52;100.00;94590.00;2401225;57;26675;-61
2021/05/06 04:27:18;;;;;;;3.17;1.30;;;6.10;99.90;;;6.39;100.00;94585.00;2400859;58;26120;-62
2021/05/06 04:30:36;;;;;;;2.97;1.50;;;6.20;99.90;;;6.51;100.00;94586.00;2188036;58;26173;-62
2021/05/06 04:36:36;;;;;;;4.13;1.70;;;6.20;99.90;;;6.56;100.00;94576.00;2187847;58;26581;-62
2021/05/06 04:39:30;;;;;;;2.70;1.60;;;6.30;99.90;;;6.55;100.00;94584.00;2188028;58;26595;-62
2021/05/06 04:45:59;;;;;;;4.17;1.30;;;6.30;99.90;;;6.61;100.00;94590.00;2401023;57;26164;-62
2021/05/06 04:55:05;;;;;;;5.13;1.53;;;6.40;99.90;;;6.63;100.00;94580.00;2401139;57;26566;-62
2021/05/06 05:04:27;;;;;;;4.73;1.60;;;6.50;99.90;;;6.82;100.00;94565.00;2118677;58;26121;-62
2021/05/06 05:07:16;;;;;;;3.50;1.30;;;6.50;99.90;;;6.85;100.00;94565.00;2400975;58;26132;-62
2021/05/06 05:10:14;;;;;;;2.97;1.57;;;6.50;99.90;;;6.90;100.00;94571.00;2188136;58;26163;-62
2021/05/06 05:25:34;;;;;;;5.73;1.80;;;6.60;99.90;;;6.86;100.00;94579.00;2401099;57;26157;-62
2021/05/06 05:28:20;;;;;;;7.03;1.70;;;6.70;99.90;;;7.15;100.00;94580.00;2400984;57;26144;-61
2021/05/06 05:31:06;;;;;;;5.70;1.80;;;6.70;99.90;;;7.12;100.00;94573.00;2400951;57;26640;-61
2021/05/06 05:33:57;;;;;;;3.93;1.77;;;6.60;99.90;;;6.95;100.00;94571.00;2188067;58;26119;-61
2021/05/06 05:36:44;;;;;;;3.33;1.50;;;6.80;99.90;;;7.19;100.00;94565.00;2187560;58;26132;-61
2021/05/06 05:39:36;;;;;;;5.73;1.53;;;6.70;99.90;;;7.11;100.00;94566.00;2187884;58;26653;-61
2021/05/06 05:42:29;;;;;;;3.23;1.47;;;6.90;99.90;;;7.31;100.00;94577.00;2187872;58;26132;-62
2021/05/06 05:46:03;;;;;;;6.13;1.70;;;7.00;99.90;;;7.44;100.00;94569.00;2401133;57;26620;-62
2021/05/06 05:55:13;;;;;;;5.67;2.80;;;7.20;99.90;;;7.69;100.00;94575.00;2373057;57;26197;-62
2021/05/06 05:58:00;;;;;;;3.43;1.97;;;7.30;99.90;;;7.87;100.00;94581.00;2187488;58;26112;-62
2021/05/06 06:00:46;;;;;;;6.30;2.13;;;7.50;99.90;;;7.94;100.00;94576.00;2400845;58;26654;-62
2021/05/06 06:03:32;;;;;;;6.63;1.80;;;7.40;99.90;;;7.80;100.00;94583.00;2188108;58;26225;-62
2021/05/06 06:06:19;;;;;;;5.20;1.73;;;7.40;99.90;;;7.63;100.00;94568.00;2400238;57;26668;-62
2021/05/06 06:09:06;;;;;;;2.27;1.60;;;7.40;99.90;;;7.76;100.00;94567.00;2401165;58;26165;-62
2021/05/06 06:11:52;;;;;;;3.87;1.57;;;7.40;99.90;;;7.85;100.00;94571.00;2187744;58;26213;-62
2021/05/06 06:14:46;;;;;;;3.83;1.30;;;7.50;99.90;;;8.08;100.00;94568.00;2400774;57;26725;-63
2021/05/06 06:17:37;;;;;;;5.10;1.50;;;7.50;99.90;;;7.99;100.00;94576.00;2400981;57;26124;-62
2021/05/06 06:20:27;;;;;;;3.93;1.50;;;7.60;99.90;;;8.02;100.00;94566.00;2188007;58;26545;-62
2021/05/06 06:23:13;;;;;;;3.90;1.30;;;7.60;99.90;;;8.00;100.00;94563.00;2400824;58;26623;-62
2021/05/06 06:25:59;;;;;;;2.57;1.37;;;7.50;99.90;;;7.79;100.00;94574.00;2187826;58;26628;-62
2021/05/06 06:28:48;;;;;;;1.97;1.10;;;7.40;99.90;;;7.60;100.00;94575.00;2187799;58;26168;-62
2021/05/06 06:31:38;;;;;;;2.13;1.30;;;7.40;99.90;;;7.70;100.00;94572.00;2400457;58;26169;-63
2021/05/06 06:34:24;;;;;;;2.77;1.83;;;7.20;99.90;;;7.65;100.00;94561.00;2400896;57;26125;-63
2021/05/06 06:37:11;;;;;;;3.57;1.30;;;7.40;99.90;;;7.76;100.00;94566.00;2401180;58;26218;-61
2021/05/06 06:39:57;;;;;;;2.80;1.43;;;7.50;99.90;;;7.82;100.00;94556.00;2188028;58;26232;-62
2021/05/06 06:42:44;;;;;;;4.73;1.77;;;7.50;99.90;;;7.78;100.00;94548.00;2400907;57;26181;-61
2021/05/06 06:45:30;;;;;;;2.83;1.30;;;7.30;99.90;;;7.78;100.00;94539.00;2188314;58;26260;-62
2021/05/06 06:48:17;;;;;;;1.93;1.20;;;7.70;99.90;;;8.31;100.00;94543.00;2401278;57;26232;-59
2021/05/06 06:51:04;;;;;;;5.30;1.50;;;7.70;99.90;;;8.26;100.00;94543.00;2187673;58;26586;-60
2021/05/06 06:53:50;;;;;;;4.33;1.30;;;8.10;99.90;;;8.84;100.00;94532.00;2401264;57;26112;-59
2021/05/06 06:56:37;;;;;;;3.67;1.47;;;8.90;99.90;;;10.80;100.00;94524.00;2187776;58;26574;-59
2021/05/06 06:59:23;;;;;;;4.47;1.30;;;11.00;99.90;;;14.95;85.24;94514.00;2401471;58;26145;-59
2021/05/06 07:02:09;;;;;;;1.80;1.40;;;13.60;99.90;;;17.65;63.48;94507.00;2401378;57;26177;-59
2021/05/06 07:04:55;;;;;;;7.50;1.40;;;12.70;99.90;;;15.51;62.50;94513.00;2187595;58;26128;-58
2021/05/06 07:07:42;;;;;;;4.10;2.10;;;11.10;99.90;;;12.99;78.10;94519.00;2401036;57;26207;-58
2021/05/06 07:10:28;;;;;;;5.40;1.60;;;11.20;99.90;;;12.41;88.16;94511.00;2187976;58;26228;-59
2021/05/06 07:13:16;;;;;;;3.57;1.30;;;10.30;99.90;;;11.07;100.00;94517.00;2400998;57;26189;-60
2021/05/06 07:16:05;;;;;;;4.87;1.33;;;9.30;99.90;;;9.80;100.00;94519.00;2188198;58;26151;-62
2021/05/06 07:18:51;;;;;;;4.13;1.60;;;9.00;99.90;;;9.82;100.00;94508.00;2401399;57;26132;-62
2021/05/06 07:21:38;;;;;;;4.63;1.80;;;8.80;99.90;;;9.42;100.00;94496.00;2187661;58;26554;-62
2021/05/06 07:24:24;;;;;;;4.33;1.60;;;8.90;99.90;;;9.83;100.00;94491.00;2401460;57;26184;-62
2021/05/06 07:27:11;;;;;;;3.47;1.50;;;9.40;99.90;;;10.24;100.00;94490.00;2188195;58;26658;-62
2021/05/06 07:29:57;;;;;;;3.30;1.40;;;9.40;99.90;;;10.44;100.00;94493.00;2400936;57;26161;-62
2021/05/06 07:32:44;;;;;;;2.50;1.40;;;9.30;99.90;;;10.42;100.00;94490.00;2400976;57;26113;-62
2021/05/06 07:35:32;;;;;;;3.80;1.50;;;9.90;99.90;;;10.66;100.00;94479.00;2187648;58;26152;-62
2021/05/06 07:38:19;;;;;;;3.03;1.33;;;10.00;99.90;;;10.74;100.00;94484.00;2188126;58;26713;-62
2021/05/06 07:41:07;;;;;;;3.50;1.80;;;9.90;99.90;;;10.69;100.00;94494.00;2187968;58;26652;-62
2021/05/06 07:43:53;;;;;;;3.33;1.60;;;9.70;99.90;;;10.12;100.00;94489.00;2401321;58;26651;-63
2021/05/06 07:46:40;;;;;;;5.23;1.43;;;9.30;99.90;;;9.86;100.00;94491.00;2187863;58;26120;-62
2021/05/06 07:49:26;;;;;;;5.30;1.40;;;9.80;99.90;;;10.43;100.00;94473.00;2401077;57;26309;-62
2021/05/06 07:52:15;;;;;;;2.87;1.40;;;9.30;99.90;;;10.04;100.00;94463.00;2188015;58;26160;-62
2021/05/06 07:55:01;;;;;;;2.50;1.33;;;9.90;99.90;;;10.80;100.00;94451.00;2401198;57;26196;-62
2021/05/06 07:57:48;;;;;;;2.57;1.20;;;9.60;99.90;;;10.33;100.00;94451.00;2187651;58;26601;-62
2021/05/06 08:00:36;;;;;;;6.10;1.60;;;10.30;99.90;;;11.20;100.00;94438.00;2400856;58;27256;-62
2021/05/06 08:03:23;;;;;;;3.90;1.60;;;10.80;99.90;;;11.74;96.13;94442.00;2187070;58;26624;-62
2021/05/06 08:06:10;;;;;;;3.33;1.40;;;11.10;99.90;;;11.96;95.49;94441.00;2186306;58;26260;-62
2021/05/06 08:08:56;;;;;;;2.40;1.20;;;10.70;99.90;;;11.74;93.11;94438.00;2188358;58;26208;-62
2021/05/06 08:11:43;;;;;;;3.90;1.43;;;10.30;99.90;;;11.53;86.46;94430.00;2187675;58;26144;-62
2021/05/06 08:14:29;;;;;;;5.80;1.50;;;11.00;99.90;;;12.30;83.04;94430.00;2401296;57;26641;-62
2021/05/06 08:17:16;;;;;;;4.03;1.27;;;11.30;99.90;;;12.48;89.06;94427.00;2188380;58;26193;-62
2021/05/06 08:20:04;;;;;;;3.13;1.30;;;11.10;99.90;;;11.96;81.69;94412.00;2400720;57;26618;-62
2021/05/06 08:22:51;;;;;;;2.80;1.37;;;11.80;99.90;;;12.65;75.65;94418.00;2187974;58;26204;-63
2021/05/06 08:25:38;;;;;;;4.57;1.30;;;12.20;99.90;;;13.16;75.27;94408.00;2401198;57;26207;-62
2021/05/06 08:28:24;;;;;;;2.17;1.30;;;12.50;99.90;;;13.58;71.08;94411.00;2188048;58;26543;-62
2021/05/06 08:31:11;;;;;;;2.53;1.30;;;11.70;99.90;;;13.00;73.01;94405.00;2401099;57;26148;-63
2021/05/06 08:33:57;;;;;;;2.60;1.23;;;11.60;99.90;;;13.23;83.91;94411.00;2188486;58;26115;-62
2021/05/06 08:36:44;;;;;;;4.60;1.47;;;12.10;99.90;;;13.54;71.78;94400.00;2400464;57;26130;-62
2021/05/06 08:39:30;;;;;;;4.43;1.80;;;11.00;99.90;;;12.24;79.44;94403.00;2401213;57;26117;-62
2021/05/06 08:42:18;;;;;;;4.63;1.83;;;11.20;99.90;;;12.22;77.92;94396.00;2188452;58;26172;-62
2021/05/06 08:45:07;;;;;;;4.40;1.60;;;11.60;99.90;;;13.00;77.91;94400.00;2401557;57;26192;-63
2021/05/06 08:47:55;;;;;;;4.43;1.53;;;11.60;99.90;;;12.63;78.35;94390.00;2188434;58;26287;-63
2021/05/06 08:50:44;;;;;;;3.60;1.40;;;11.50;99.90;;;12.87;74.87;94390.00;2187928;58;26112;-64
2021/05/06 08:53:30;;;;;;;4.23;1.73;;;11.50;99.90;;;13.25;76.45;94374.00;2188347;58;26164;-63
2021/05/06 08:56:17;;;;;;;3.40;1.57;;;12.40;99.90;;;14.12;67.87;94369.00;2401480;57;26566;-63
2021/05/06 08:59:03;;;;;;;2.13;1.40;;;12.20;99.90;;;13.23;72.57;94375.00;2188594;58;26144;-62
2021/05/06 09:01:51;;;;;;;3.23;1.63;;;12.30;99.90;;;13.50;69.34;94380.00;2401329;58;26185;-63
2021/05/06 09:04:38;;;;;;;3.33;1.80;;;12.00;99.90;;;13.00;73.76;94374.00;2187908;58;26613;-62
2021/05/06 09:07:25;;;;;;;2.90;1.40;;;12.50;99.90;;;14.02;71.82;94367.00;2401658;58;26194;-62
2021/05/06 09:10:31;;;;;;;4.00;1.40;;;12.30;99.90;;;13.84;68.65;94372.00;2187909;58;26159;-62
2021/05/06 09:13:28;;;;;;;2.87;1.70;;;12.20;99.90;;;12.88;67.43;94387.00;2187957;58;26198;-62
2021/05/06 09:16:14;;;;;;;4.13;1.60;;;12.00;99.90;;;13.28;70.39;94385.00;2188367;58;26183;-62
2021/05/06 09:19:06;;;;;;;5.00;1.67;;;11.80;99.90;;;13.17;98.83;94388.00;2188335;58;26177;-62
2021/05/06 09:21:52;;;;;;;3.73;1.53;;;11.60;99.90;;;12.95;91.64;94390.00;2187965;58;26220;-62
2021/05/06 09:24:38;;;;;;;3.37;1.30;;;11.90;99.90;;;13.14;75.21;94394.00;2188053;58;26124;-62
2021/05/06 09:27:29;;;;;;;2.10;1.37;;;12.00;99.90;;;13.33;78.66;94390.00;2401041;57;26112;-62
2021/05/06 09:30:18;;;;;;;2.50;1.47;;;12.10;99.90;;;13.27;73.10;94385.00;2187772;58;26558;-62
2021/05/06 09:33:06;;;;;;;4.00;1.57;;;12.00;99.90;;;13.06;76.10;94396.00;2188357;58;26605;-62
2021/05/06 09:35:52;;;;;;;3.70;1.50;;;12.30;99.90;;;13.18;77.69;94389.00;2187561;58;26634;-62
2021/05/06 09:38:42;;;;;;;3.97;1.60;;;12.60;99.90;;;13.32;73.82;94383.00;2400996;57;26157;-62
2021/05/06 09:41:31;;;;;;;3.80;1.33;;;12.50;99.90;;;13.07;76.49;94395.00;2187923;58;26243;-62
2021/05/06 09:44:17;;;;;;;2.60;1.40;;;12.40;99.90;;;13.17;73.36;94396.00;2188011;58;26218;-62
2021/05/06 09:47:16;;;;;;;4.53;1.60;;;12.60;99.90;;;13.61;76.22;94401.00;2187923;58;26172;-63
2021/05/06 09:50:02;;;;;;;5.23;1.60;;;12.20;99.90;;;12.98;72.60;94395.00;2187872;58;26199;-62
2021/05/06 09:52:58;;;;;;;6.23;1.50;;;12.00;99.90;;;13.30;79.37;94394.00;2400578;57;26229;-62
2021/05/06 09:55:46;;;;;;;7.80;2.10;;;12.50;99.90;;;13.67;77.66;94392.00;2187987;58;26204;-62
2021/05/06 09:58:34;;;;;;;5.90;2.00;;;12.30;99.90;;;13.41;83.96;94390.00;2400194;57;26305;-62
2021/05/06 10:01:22;;;;;;;5.80;1.80;;;12.20;99.90;;;13.28;75.31;94384.00;2187897;58;26222;-62
2021/05/06 10:04:17;;;;;;;7.00;2.13;;;12.10;99.90;;;13.13;73.27;94393.00;2188058;58;26133;-62
2021/05/06 10:07:14;;;;;;;4.37;1.63;;;12.50;99.90;;;13.59;75.01;94395.00;2187930;58;26133;-62
2021/05/06 10:10:03;;;;;;;1.63;1.23;;;12.40;99.90;;;13.52;77.90;94383.00;2400822;57;26511;-62
2021/05/06 10:12:49;;;;;;;5.03;1.80;;;12.30;99.90;;;13.08;74.39;94394.00;2187894;58;26212;-62
2021/05/06 10:15:36;;;;;;;3.40;1.57;;;12.10;99.90;;;12.67;82.21;94397.00;2400944;58;26184;-62
2021/05/06 10:18:22;;;;;;;4.80;2.10;;;11.40;99.90;;;11.97;95.10;94398.00;2187855;58;26270;-62
2021/05/06 10:21:11;;;;;;;4.40;2.00;;;11.40;99.90;;;12.15;100.00;94393.00;2400567;58;26135;-62
2021/05/06 10:23:59;;;;;;;5.63;1.83;;;11.50;99.90;;;12.31;98.70;94398.00;2188267;58;26638;-62
2021/05/06 10:26:48;;;;;;;3.90;1.80;;;11.10;99.90;;;11.61;100.00;94417.00;2400570;57;26152;-62
2021/05/06 10:29:35;;;;;;;3.10;1.50;;;10.90;99.90;;;11.57;100.00;94416.00;2188325;58;26176;-62
2021/05/06 10:32:22;;;;;;;5.07;1.70;;;10.70;99.90;;;11.55;100.00;94410.00;2188056;58;26587;-62
2021/05/06 10:35:12;;;;;;;6.57;1.70;;;10.40;99.90;;;11.10;100.00;94408.00;2186389;58;26268;-62
2021/05/06 10:38:00;;;;;;;4.23;1.53;;;10.30;99.90;;;11.20;100.00;94406.00;2401081;57;26181;-62
2021/05/06 10:40:46;;;;;;;5.67;1.67;;;10.40;99.90;;;11.47;100.00;94401.00;2187875;58;26135;-62
2021/05/06 10:43:33;;;;;;;2.77;1.70;;;10.50;99.90;;;11.51;100.00;94400.00;2188000;58;26152;-62
2021/05/06 10:46:19;;;;;;;3.07;2.00;;;10.60;99.90;;;11.48;100.00;94406.00;2401127;58;26196;-62
2021/05/06 10:49:06;;;;;;;2.40;1.40;;;10.60;99.90;;;11.24;100.00;94417.00;2187795;58;26152;-62
2021/05/06 10:52:02;;;;;;;5.17;1.70;;;10.70;99.90;;;11.32;100.00;94414.00;2400815;58;26128;-62
2021/05/06 10:54:51;;;;;;;5.33;1.77;;;10.70;99.90;;;11.25;100.00;94412.00;2401146;57;26165;-62
2021/05/06 10:57:38;;;;;;;3.40;1.50;;;10.70;99.90;;;11.45;100.00;94409.00;2187811;58;26565;-62
2021/05/06 11:00:27;;;;;;;3.37;1.30;;;10.30;99.90;;;10.82;100.00;94412.00;2187856;58;26964;-62
2021/05/06 11:03:26;;;;;;;1.97;1.30;;;10.10;99.90;;;10.53;100.00;94411.00;2188346;58;26180;-62
2021/05/06 11:06:44;;;;;;;2.83;1.50;;;9.90;99.90;;;10.41;100.00;94407.00;2400604;57;26645;-62
2021/05/06 11:10:00;;;;;;;5.03;1.57;;;9.80;99.90;;;10.45;100.00;94408.00;2188101;58;26129;-62
2021/05/06 11:12:57;;;;;;;4.33;1.60;;;9.90;99.90;;;10.63;100.00;94399.00;2187813;58;26609;-62
2021/05/06 11:15:44;;;;;;;5.20;1.63;;;10.00;99.90;;;10.93;100.00;94396.00;2187931;58;26120;-62
2021/05/06 11:18:44;;;;;;;3.20;1.40;;;10.00;99.90;;;10.74;100.00;94399.00;2188169;58;26665;-62
2021/05/06 11:21:41;;;;;;;2.77;1.50;;;9.90;99.90;;;10.80;100.00;94390.00;2188134;58;26176;-62
2021/05/06 11:24:28;;;;;;;3.13;1.30;;;10.20;99.90;;;11.19;100.00;94391.00;2188224;58;26233;-62
2021/05/06 11:27:20;;;;;;;2.77;1.43;;;10.30;99.90;;;11.33;100.00;94378.00;2187607;58;26145;-62
2021/05/06 11:30:33;;;;;;;5.17;1.33;;;10.60;99.90;;;11.87;100.00;94381.00;2188338;58;26124;-63
2021/05/06 11:33:27;;;;;;;3.23;1.47;;;10.40;99.90;;;11.56;100.00;94376.00;2188449;58;26120;-62
2021/05/06 11:36:18;;;;;;;3.80;1.47;;;10.50;99.90;;;11.65;100.00;94376.00;2400728;58;26199;-62
2021/05/06 11:39:04;;;;;;;4.93;1.40;;;10.50;99.90;;;11.41;100.00;94374.00;2188085;58;26619;-62
2021/05/06 11:41:51;;;;;;;1.93;1.33;;;10.40;99.90;;;11.33;100.00;94361.00;2400519;57;26176;-62
2021/05/06 11:44:37;;;;;;;3.77;1.40;;;10.20;99.90;;;11.23;100.00;94360.00;2188155;58;26720;-62
2021/05/06 11:47:28;;;;;;;3.20;1.23;;;10.20;99.90;;;11.14;100.00;94357.00;2401073;58;26224;-62
2021/05/06 11:50:27;;;;;;;3.00;1.43;;;10.10;99.90;;;11.14;100.00;94362.00;2187873;58;26117;-62
2021/05/06 11:53:16;;;;;;;1.80;1.13;;;10.10;99.90;;;11.12;100.00;94343.00;2401381;57;26136;-62
2021/05/06 11:56:16;;;;;;;3.28;1.26;;;10.40;99.90;;;11.32;100.00;94349.00;2092073;58;19504981;-62
2021/05/06 11:59:06;;;;;;;2.53;1.20;;;10.20;99.90;;;11.27;100.00;94338.00;2187841;58;26605;-62
2021/05/06 12:01:53;;;;;;;3.10;1.30;;;10.30;99.90;;;11.58;100.00;94336.00;2401254;57;26578;-62
2021/05/06 12:04:41;;;;;;;4.20;1.40;;;10.40;99.90;;;11.47;100.00;94328.00;2187766;58;26591;-62
2021/05/06 12:07:30;;;;;;;3.97;1.70;;;10.80;99.90;;;11.98;100.00;94325.00;2187676;58;26191;-62
2021/05/06 12:10:17;;;;;;;4.47;1.60;;;10.70;99.90;;;11.75;100.00;94318.00;2187987;58;26132;-62
2021/05/06 12:13:03;;;;;;;1.67;1.10;;;10.70;99.90;;;11.70;100.00;94303.00;2187855;58;26601;-62
2021/05/06 12:15:49;;;;;;;2.07;1.33;;;10.90;99.90;;;11.93;100.00;94300.00;2400764;57;26133;-62
2021/05/06 12:18:36;;;;;;;2.10;1.30;;;10.80;99.90;;;11.80;100.00;94308.00;2188087;58;26630;-62
2021/05/06 12:21:29;;;;;;;4.40;1.70;;;11.30;99.90;;;12.31;100.00;94298.00;2400444;57;26168;-62
2021/05/06 12:24:29;;;;;;;4.67;1.57;;;11.00;99.90;;;11.94;100.00;94293.00;2187934;58;26652;-62
2021/05/06 12:27:19;;;;;;;1.70;1.00;;;11.10;99.90;;;12.11;100.00;94286.00;2187747;58;26646;-61
2021/05/06 12:30:14;;;;;;;3.37;1.17;;;10.90;99.90;;;11.74;100.00;94275.00;2400721;57;26701;-63
2021/05/06 12:33:00;;;;;;;2.40;1.43;;;11.30;99.90;;;12.25;100.00;94267.00;2401251;57;26163;-62
2021/05/06 12:35:51;;;;;;;3.23;1.50;;;10.80;99.90;;;11.84;100.00;94261.00;2187549;58;26261;-63
2021/05/06 12:38:39;;;;;;;3.33;1.73;;;10.40;99.90;;;11.35;100.00;94259.00;2401265;57;26847;-63
2021/05/06 12:41:25;;;;;;;3.77;1.60;;;10.40;99.90;;;11.49;100.00;94240.00;2187977;58;26120;-62
2021/05/06 12:44:11;;;;;;;3.20;1.27;;;10.50;99.90;;;11.70;100.00;94244.00;2188104;58;26191;-62
2021/05/06 12:47:17;;;;;;;2.97;1.50;;;10.40;99.90;;;11.45;100.00;94238.00;2401320;57;26537;-62
2021/05/06 12:50:12;;;;;;;4.43;1.53;;;10.30;99.90;;;11.34;100.00;94230.00;2401041;57;26141;-62
2021/05/06 12:53:09;;;;;;;5.63;1.60;;;10.10;99.90;;;11.03;100.00;94228.00;2401052;58;26144;-62
2021/05/06 12:55:55;;;;;;;3.77;1.33;;;9.90;99.90;;;10.79;100.00;94216.00;2187735;58;26260;-62
2021/05/06 12:58:41;;;;;;;2.80;1.60;;;9.90;99.90;;;10.99;100.00;94224.00;2401095;57;26108;-63
2021/05/06 13:01:33;;;;;;;2.97;1.33;;;10.00;99.90;;;10.86;100.00;94219.00;2188361;58;26132;-63
2021/05/06 13:04:20;;;;;;;3.23;1.63;;;9.80;99.90;;;10.66;100.00;94206.00;2400681;57;26597;-62
2021/05/06 13:07:06;;;;;;;3.70;1.67;;;9.80;99.90;;;10.72;100.00;94207.00;2188189;58;26253;-62
2021/05/06 13:09:53;;;;;;;3.60;1.53;;;9.70;99.90;;;10.65;100.00;94205.00;2401265;57;27078;-62
2021/05/06 13:12:44;;;;;;;4.43;1.57;;;9.60;99.90;;;10.51;100.00;94195.00;2400643;58;26267;-62
2021/05/06 13:15:45;;;;;;;4.90;1.60;;;9.60;99.90;;;10.41;100.00;94182.00;2401106;58;26116;-63
2021/05/06 13:18:32;;;;;;;4.67;1.80;;;9.70;99.90;;;10.55;100.00;94178.00;2188322;58;26727;-62
2021/05/06 13:21:24;;;;;;;6.10;1.87;;;9.40;99.90;;;10.03;100.00;94167.00;2400612;57;26112;-62
2021/05/06 13:24:11;;;;;;;3.50;1.90;;;9.10;99.90;;;9.85;100.00;94167.00;2401268;57;26233;-63
2021/05/06 13:26:57;;;;;;;6.03;2.20;;;9.10;99.90;;;9.80;100.00;94168.00;2188219;58;26184;-63
2021/05/06 13:29:56;;;;;;;3.97;2.67;;;9.00;99.90;;;9.68;100.00;94161.00;2187442;58;26657;-62
2021/05/06 13:32:43;;;;;;;7.73;5.10;;;8.90;99.90;;;9.54;100.00;94166.00;2187621;58;26166;-62
2021/05/06 13:35:29;;;;;;;7.10;2.77;;;8.80;99.90;;;9.41;100.00;94160.00;2400732;57;26191;-62
2021/05/06 13:38:15;;;;;;;3.37;1.70;;;8.80;99.90;;;9.31;100.00;94157.00;2188128;58;26132;-63
2021/05/06 13:41:02;;;;;;;4.17;2.00;;;8.70;99.90;;;9.27;100.00;94142.00;2187553;58;26276;-61
2021/05/06 13:43:48;;;;;;;3.70;1.93;;;8.80;99.90;;;9.41;100.00;94128.00;2400916;58;26172;-62
2021/05/06 13:46:44;;;;;;;6.03;1.77;;;8.80;99.90;;;9.41;100.00;94116.00;2187923;58;26587;-61
2021/05/06 13:49:32;;;;;;;6.43;2.10;;;8.70;99.90;;;9.32;100.00;94109.00;2187325;58;26132;-62
2021/05/06 13:52:19;;;;;;;4.27;1.87;;;8.70;99.90;;;9.28;100.00;94095.00;2187844;58;26245;-62
2021/05/06 13:55:07;;;;;;;3.50;2.00;;;8.80;99.90;;;9.39;100.00;94091.00;2401070;57;26188;-62
2021/05/06 13:57:53;;;;;;;6.77;3.30;;;8.80;99.90;;;9.39;100.00;94080.00;2187464;58;26187;-62
2021/05/06 14:00:39;;;;;;;7.07;2.53;;;8.80;99.90;;;9.48;100.00;94079.00;2400779;57;26170;-62
2021/05/06 14:03:26;;;;;;;3.33;1.77;;;8.80;99.90;;;9.42;100.00;94075.00;2188344;58;26237;-63
2021/05/06 14:06:15;;;;;;;3.03;1.63;;;8.80;99.90;;;9.45;100.00;94079.00;2400208;57;26144;-62
2021/05/06 14:09:01;;;;;;;3.00;1.97;;;9.00;99.90;;;9.94;100.00;94085.00;2188229;58;26693;-62
2021/05/06 14:11:50;;;;;;;2.53;1.70;;;9.00;99.90;;;9.85;100.00;94096.00;2400852;58;26993;-62